Time;durP1;ratioP1;P1;durP2;ratioP2;P2;SDS_P1;SDS_P2;PMS_P1;PMS_P2;Temp;Humidity;BMP_temperature;BMP_pressure;BME280_temperature;BME280_humidity;BME280_pressure;Samples;Min_cycle;Max_cycle;Signal;HPM_P1;HPM_P2
2021/08/23 00:02:14;;;;;;;;;;;14.10;1.00;;;;;;5009467;28;19959;-64
2021/08/23 00:04:40;;;;;;;;;;;14.10;1.00;;;;;;5009889;28;19910;-65
2021/08/23 00:07:06;;;;;;;;;;;14.10;1.00;;;;;;4997311;28;19914;-65
2021/08/23 00:09:32;;;;;;;;;;;14.10;1.00;;;;;;4989543;28;19921;-64
2021/08/23 00:11:58;;;;;;;;;;;14.00;1.00;;;;;;4988832;28;19968;-64
2021/08/23 00:14:23;;;;;;;;;;;14.00;1.00;;;;;;4989327;28;19933;-65
2021/08/23 00:16:49;;;;;;;;;;;14.00;1.00;;;;;;4990009;28;19920;-64
2021/08/23 00:19:14;;;;;;;;;;;14.00;1.00;;;;;;4990159;28;19941;-64
2021/08/23 00:21:44;;;;;;;;;;;13.90;1.00;;;;;;5001925;28;19917;-64
2021/08/23 00:24:23;;;;;;;;;;;13.90;1.00;;;;;;5008729;28;20357;-65
2021/08/23 00:26:52;;;;;;;;;;;13.90;1.00;;;;;;5009308;28;20390;-65
2021/08/23 00:29:17;;;;;;;;;;;13.80;1.00;;;;;;5008920;28;19917;-65
2021/08/23 00:31:43;;;;;;;;;;;13.80;1.00;;;;;;5009459;28;19936;-65
2021/08/23 00:34:09;;;;;;;;;;;13.80;1.00;;;;;;5009649;28;19909;-64
2021/08/23 00:36:35;;;;;;;;;;;13.70;1.00;;;;;;5011031;28;19910;-65
2021/08/23 00:39:00;;;;;;;;;;;13.70;1.00;;;;;;5013722;28;19913;-65
2021/08/23 00:41:26;;;;;;;;;;;13.70;1.00;;;;;;5013204;28;19940;-65
2021/08/23 00:43:51;;;;;;;;;;;13.70;1.00;;;;;;5012683;28;20281;-64
2021/08/23 00:46:17;;;;;;;;;;;13.70;1.00;;;;;;5012617;28;19909;-65
2021/08/23 00:48:42;;;;;;;;;;;13.70;1.00;;;;;;5013294;28;19913;-64
2021/08/23 00:51:08;;;;;;;;;;;13.70;1.00;;;;;;5011662;28;20339;-64
2021/08/23 00:53:33;;;;;;;;;;;13.70;1.00;;;;;;5012711;28;20012;-64
2021/08/23 00:55:59;;;;;;;;;;;13.70;1.00;;;;;;5013101;28;19913;-65
2021/08/23 00:58:25;;;;;;;;;;;13.70;1.00;;;;;;5012868;28;19968;-65
2021/08/23 01:01:04;;;;;;;;;;;13.60;1.00;;;;;;5010664;28;19910;-65
2021/08/23 01:03:36;;;;;;;;;;;13.60;1.00;;;;;;4992442;28;19932;-64
2021/08/23 01:06:02;;;;;;;;;;;13.60;1.00;;;;;;4996875;28;19913;-65
2021/08/23 01:08:36;;;;;;;;;;;13.60;1.00;;;;;;5012926;28;19921;-64
2021/08/23 01:11:04;;;;;;;;;;;13.60;1.00;;;;;;5013091;28;19976;-65
2021/08/23 01:13:31;;;;;;;;;;;13.70;1.00;;;;;;5011605;28;20293;-65
2021/08/23 01:15:56;;;;;;;;;;;13.70;1.00;;;;;;5011786;28;19925;-64
2021/08/23 01:18:23;;;;;;;;;;;13.70;1.00;;;;;;5012707;28;20640;-65
2021/08/23 01:20:49;;;;;;;;;;;13.70;1.00;;;;;;5012918;28;20406;-65
2021/08/23 01:23:14;;;;;;;;;;;13.70;1.00;;;;;;5011969;28;20308;-66
2021/08/23 01:25:41;;;;;;;;;;;13.80;1.00;;;;;;5012853;28;19940;-65
2021/08/23 01:28:15;;;;;;;;;;;13.80;1.00;;;;;;5008485;28;19924;-65
2021/08/23 01:30:46;;;;;;;;;;;13.80;1.00;;;;;;5011176;28;19909;-65
2021/08/23 01:33:12;;;;;;;;;;;13.80;1.00;;;;;;5011679;28;19916;-65
2021/08/23 01:35:38;;;;;;;;;;;13.80;1.00;;;;;;5012606;28;19996;-65
2021/08/23 01:38:03;;;;;;;;;;;13.80;1.00;;;;;;5002037;28;19917;-66
2021/08/23 01:40:29;;;;;;;;;;;13.80;1.00;;;;;;5005468;28;19997;-66
2021/08/23 01:42:54;;;;;;;;;;;13.90;1.00;;;;;;5011166;28;19909;-65
2021/08/23 01:45:20;;;;;;;;;;;13.90;1.00;;;;;;5011397;28;19910;-65
2021/08/23 01:47:45;;;;;;;;;;;13.90;1.00;;;;;;5012140;28;19928;-64
2021/08/23 01:50:10;;;;;;;;;;;13.90;1.00;;;;;;5011839;28;20369;-66
2021/08/23 01:52:36;;;;;;;;;;;13.90;1.00;;;;;;5011115;28;19913;-66
2021/08/23 01:55:02;;;;;;;;;;;13.90;1.00;;;;;;5012147;28;19910;-64
2021/08/23 01:57:27;;;;;;;;;;;14.00;1.00;;;;;;5011548;28;19913;-66
2021/08/23 01:59:53;;;;;;;;;;;14.00;1.00;;;;;;5010997;28;19913;-66
2021/08/23 02:02:18;;;;;;;;;;;14.00;1.00;;;;;;5010717;28;19921;-64
2021/08/23 02:04:44;;;;;;;;;;;14.00;1.00;;;;;;5011789;28;19909;-65
2021/08/23 02:07:09;;;;;;;;;;;14.00;1.00;;;;;;4998727;28;19910;-66
2021/08/23 02:09:35;;;;;;;;;;;14.10;1.00;;;;;;4991871;28;20568;-66
2021/08/23 02:12:00;;;;;;;;;;;14.00;1.00;;;;;;4990335;28;20339;-66
2021/08/23 02:14:26;;;;;;;;;;;14.10;1.00;;;;;;4991028;28;19916;-64
2021/08/23 02:16:54;;;;;;;;;;;14.10;1.00;;;;;;4991903;28;20264;-66
2021/08/23 02:19:20;;;;;;;;;;;14.10;1.00;;;;;;4991541;28;20000;-66
2021/08/23 02:21:50;;;;;;;;;;;14.20;1.00;;;;;;4991633;28;20008;-65
2021/08/23 02:24:16;;;;;;;;;;;14.20;1.00;;;;;;4991432;28;19910;-66
2021/08/23 02:26:41;;;;;;;;;;;14.20;1.00;;;;;;4991622;28;20503;-65
2021/08/23 02:29:07;;;;;;;;;;;14.20;1.00;;;;;;5003204;28;20012;-65
2021/08/23 02:31:32;;;;;;;;;;;14.20;1.00;;;;;;5010373;28;19960;-66
2021/08/23 02:33:58;;;;;;;;;;;14.20;1.00;;;;;;5010668;28;19958;-65
2021/08/23 02:36:23;;;;;;;;;;;14.20;1.00;;;;;;5010719;28;20031;-65
2021/08/23 02:38:49;;;;;;;;;;;14.30;1.00;;;;;;5011182;28;20008;-65
2021/08/23 02:41:15;;;;;;;;;;;14.20;1.00;;;;;;5010739;28;20012;-64
2021/08/23 02:43:40;;;;;;;;;;;14.30;1.00;;;;;;5010082;28;20004;-65
2021/08/23 02:46:06;;;;;;;;;;;14.30;1.00;;;;;;5010162;28;20293;-66
2021/08/23 02:48:31;;;;;;;;;;;14.30;1.00;;;;;;5010652;28;19913;-64
2021/08/23 02:50:57;;;;;;;;;;;14.30;1.00;;;;;;5006929;28;19949;-66
2021/08/23 02:53:22;;;;;;;;;;;14.30;1.00;;;;;;5006038;28;19913;-65
2021/08/23 02:55:48;;;;;;;;;;;14.30;1.00;;;;;;5011025;28;19909;-66
2021/08/23 02:58:13;;;;;;;;;;;14.30;1.00;;;;;;5009658;28;19910;-64
2021/08/23 03:00:39;;;;;;;;;;;14.30;1.00;;;;;;5007502;28;19946;-65
2021/08/23 03:03:04;;;;;;;;;;;14.30;1.00;;;;;;4990621;28;19961;-65
2021/08/23 03:05:30;;;;;;;;;;;14.40;1.00;;;;;;4991759;28;19913;-65
2021/08/23 03:07:55;;;;;;;;;;;14.40;1.00;;;;;;5010413;28;19933;-64
2021/08/23 03:10:21;;;;;;;;;;;14.40;1.00;;;;;;5010759;28;19976;-65
2021/08/23 03:12:47;;;;;;;;;;;14.30;1.00;;;;;;5008992;28;20345;-64
2021/08/23 03:15:12;;;;;;;;;;;14.30;1.00;;;;;;5009995;28;19909;-65
2021/08/23 03:17:37;;;;;;;;;;;14.30;1.00;;;;;;5009288;28;19909;-65
2021/08/23 03:20:04;;;;;;;;;;;14.20;1.00;;;;;;5010709;28;20033;-65
2021/08/23 03:22:29;;;;;;;;;;;14.20;1.00;;;;;;5009433;28;19910;-65
2021/08/23 03:24:55;;;;;;;;;;;14.20;1.00;;;;;;5010284;28;19914;-65
2021/08/23 03:27:20;;;;;;;;;;;14.20;1.00;;;;;;5009575;28;19910;-64
2021/08/23 03:29:50;;;;;;;;;;;14.20;1.00;;;;;;5009231;28;19909;-64
2021/08/23 03:32:16;;;;;;;;;;;14.20;1.00;;;;;;5009260;28;19945;-66
2021/08/23 03:34:41;;;;;;;;;;;14.20;1.00;;;;;;5009885;28;20378;-66
2021/08/23 03:37:07;;;;;;;;;;;14.20;1.00;;;;;;5010095;28;20282;-65
2021/08/23 03:39:33;;;;;;;;;;;14.20;1.00;;;;;;5009949;28;19939;-65
2021/08/23 03:41:58;;;;;;;;;;;14.20;1.00;;;;;;5008687;28;19933;-66
2021/08/23 03:44:24;;;;;;;;;;;14.20;1.00;;;;;;5008856;28;19913;-66
2021/08/23 03:46:52;;;;;;;;;;;14.20;1.00;;;;;;5009973;28;20297;-66
2021/08/23 03:49:17;;;;;;;;;;;14.20;1.00;;;;;;5009670;28;19917;-65
2021/08/23 03:51:43;;;;;;;;;;;14.20;1.00;;;;;;5009582;28;19921;-66
2021/08/23 03:54:09;;;;;;;;;;;14.20;1.00;;;;;;5009561;28;20329;-65
2021/08/23 03:56:34;;;;;;;;;;;14.20;1.00;;;;;;5008750;28;20605;-66
2021/08/23 03:59:00;;;;;;;;;;;14.20;1.00;;;;;;5009981;28;19913;-65
2021/08/23 04:01:25;;;;;;;;;;;14.30;1.00;;;;;;5008742;28;19964;-66
2021/08/23 04:03:51;;;;;;;;;;;14.30;1.00;;;;;;5008915;28;20338;-65
2021/08/23 04:06:16;;;;;;;;;;;14.30;1.00;;;;;;5003395;28;20005;-66
2021/08/23 04:08:42;;;;;;;;;;;14.30;1.00;;;;;;4989596;28;20290;-65
2021/08/23 04:11:10;;;;;;;;;;;14.30;1.00;;;;;;4989208;28;19964;-66
2021/08/23 04:13:36;;;;;;;;;;;14.30;1.00;;;;;;4988833;28;20330;-65
2021/08/23 04:16:03;;;;;;;;;;;14.20;1.00;;;;;;4988979;28;19975;-65
2021/08/23 04:18:28;;;;;;;;;;;14.20;1.00;;;;;;4989714;28;19914;-65
2021/08/23 04:20:54;;;;;;;;;;;14.20;1.00;;;;;;4989331;28;19917;-65
2021/08/23 04:23:19;;;;;;;;;;;14.20;1.00;;;;;;4988923;28;19910;-65
2021/08/23 04:25:44;;;;;;;;;;;14.20;1.00;;;;;;4990743;28;19917;-66
2021/08/23 04:28:10;;;;;;;;;;;14.20;1.00;;;;;;5006717;28;20000;-64
2021/08/23 04:30:35;;;;;;;;;;;14.10;1.00;;;;;;5002555;28;19925;-65
2021/08/23 04:33:01;;;;;;;;;;;14.10;1.00;;;;;;5008443;28;20448;-67
2021/08/23 04:35:26;;;;;;;;;;;14.10;1.00;;;;;;5008807;28;19964;-65
2021/08/23 04:37:52;;;;;;;;;;;14.10;1.00;;;;;;4997994;28;19910;-64
2021/08/23 04:40:17;;;;;;;;;;;14.10;1.00;;;;;;5000071;28;20012;-65
2021/08/23 04:42:43;;;;;;;;;;;14.10;1.00;;;;;;5008160;28;20338;-65
2021/08/23 04:45:08;;;;;;;;;;;14.20;1.00;;;;;;5008643;28;19921;-64
2021/08/23 04:47:34;;;;;;;;;;;14.20;1.00;;;;;;5009164;28;19953;-65
2021/08/23 04:49:59;;;;;;;;;;;14.30;1.00;;;;;;5009792;28;19917;-66
2021/08/23 04:52:25;;;;;;;;;;;14.30;1.00;;;;;;5008211;28;20212;-66
2021/08/23 04:54:51;;;;;;;;;;;14.30;1.00;;;;;;5007952;28;20354;-66
2021/08/23 04:57:18;;;;;;;;;;;14.40;1.00;;;;;;5008952;28;20281;-65
2021/08/23 04:59:44;;;;;;;;;;;14.40;1.00;;;;;;5005246;28;19917;-66
2021/08/23 05:02:09;;;;;;;;;;;14.40;1.00;;;;;;5005675;28;20282;-66
2021/08/23 05:04:34;;;;;;;;;;;14.40;1.00;;;;;;5006223;28;19925;-66
2021/08/23 05:07:00;;;;;;;;;;;14.40;1.00;;;;;;4994375;28;19964;-65
2021/08/23 05:09:26;;;;;;;;;;;14.50;1.00;;;;;;4986205;28;20350;-65
2021/08/23 05:11:51;;;;;;;;;;;14.50;1.00;;;;;;4986060;28;19917;-66
2021/08/23 05:14:17;;;;;;;;;;;14.60;1.00;;;;;;4986505;28;19916;-64
2021/08/23 05:16:42;;;;;;;;;;;14.60;1.00;;;;;;4986077;28;19909;-66
2021/08/23 05:19:08;;;;;;;;;;;14.60;1.00;;;;;;4986514;28;19914;-68
2021/08/23 05:21:33;;;;;;;;;;;14.70;1.00;;;;;;5005688;28;20393;-67
2021/08/23 05:23:59;;;;;;;;;;;14.60;1.00;;;;;;5009025;28;19909;-66
2021/08/23 05:26:24;;;;;;;;;;;14.70;1.00;;;;;;5005284;28;19917;-68
2021/08/23 05:28:50;;;;;;;;;;;14.70;1.00;;;;;;5005288;28;19979;-67
2021/08/23 05:31:15;;;;;;;;;;;14.70;1.00;;;;;;5008397;28;20318;-66
2021/08/23 05:33:41;;;;;;;;;;;14.80;1.00;;;;;;5008476;28;20008;-68
2021/08/23 05:36:06;;;;;;;;;;;14.80;1.00;;;;;;4998237;28;19930;-68
2021/08/23 05:38:32;;;;;;;;;;;14.90;1.00;;;;;;5003534;28;19956;-66
2021/08/23 05:40:57;;;;;;;;;;;14.90;1.00;;;;;;5002673;28;19988;-68
2021/08/23 05:43:23;;;;;;;;;;;14.90;1.00;;;;;;5000056;28;19933;-67
2021/08/23 05:45:48;;;;;;;;;;;14.90;1.00;;;;;;4989569;28;20278;-67
2021/08/23 05:48:16;;;;;;;;;;;14.90;1.00;;;;;;5001189;28;19999;-66
2021/08/23 05:50:41;;;;;;;;;;;14.90;1.00;;;;;;4999160;28;19910;-68
2021/08/23 05:53:07;;;;;;;;;;;15.00;1.00;;;;;;5002395;28;20393;-66
2021/08/23 05:55:32;;;;;;;;;;;14.90;1.00;;;;;;5008947;28;20030;-65
2021/08/23 05:57:58;;;;;;;;;;;14.90;1.00;;;;;;5008481;28;19941;-65
2021/08/23 06:00:23;;;;;;;;;;;14.90;1.00;;;;;;5008358;28;19919;-65
2021/08/23 06:02:49;;;;;;;;;;;14.90;1.00;;;;;;5008470;28;19917;-66
2021/08/23 06:05:15;;;;;;;;;;;14.90;1.00;;;;;;5008281;28;19909;-70
2021/08/23 06:07:40;;;;;;;;;;;14.90;1.00;;;;;;5008586;28;19988;-65
2021/08/23 06:10:06;;;;;;;;;;;14.90;1.00;;;;;;5006068;28;20016;-65
2021/08/23 06:12:32;;;;;;;;;;;15.00;1.00;;;;;;4991647;28;19918;-67
2021/08/23 06:14:57;;;;;;;;;;;15.00;1.00;;;;;;4997527;28;20286;-65
2021/08/23 06:17:23;;;;;;;;;;;15.10;1.00;;;;;;4996940;28;19925;-67
2021/08/23 06:19:49;;;;;;;;;;;15.20;1.00;;;;;;4997518;28;19914;-67
2021/08/23 06:22:14;;;;;;;;;;;15.30;1.00;;;;;;4998643;28;19910;-67
2021/08/23 06:24:40;;;;;;;;;;;15.30;1.00;;;;;;4997990;28;19988;-67
2021/08/23 06:27:05;;;;;;;;;;;15.40;1.00;;;;;;4995795;28;19917;-66
2021/08/23 06:29:30;;;;;;;;;;;15.50;1.00;;;;;;4997846;28;20375;-66
2021/08/23 06:31:56;;;;;;;;;;;15.60;1.00;;;;;;4996696;28;19917;-66
2021/08/23 06:34:22;;;;;;;;;;;15.80;1.00;;;;;;4999658;28;20011;-67
2021/08/23 06:36:47;;;;;;;;;;;16.10;1.00;;;;;;4999573;28;20033;-65
2021/08/23 06:39:13;;;;;;;;;;;16.50;1.00;;;;;;4999520;28;20318;-66
2021/08/23 06:41:39;;;;;;;;;;;16.80;1.00;;;;;;4999649;28;19913;-66
2021/08/23 06:44:05;;;;;;;;;;;17.10;99.90;;;;;;5000735;28;19918;-67
2021/08/23 06:46:31;;;;;;;;;;;17.30;25.80;;;;;;4997959;28;19913;-67
2021/08/23 06:48:56;;;;;;;;;;;17.40;1.00;;;;;;4999946;28;19913;-66
2021/08/23 06:51:24;;;;;;;;;;;17.40;1.00;;;;;;5002865;28;19909;-65
2021/08/23 06:53:49;;;;;;;;;;;17.50;1.00;;;;;;4997382;28;19917;-66
2021/08/23 06:56:15;;;;;;;;;;;17.50;99.90;;;;;;4999429;28;19920;-66
2021/08/23 06:58:41;;;;;;;;;;;17.50;1.00;;;;;;5000571;28;19929;-67
2021/08/23 07:01:06;;;;;;;;;;;17.50;1.00;;;;;;4998067;28;19994;-67
2021/08/23 07:03:34;;;;;;;;;;;17.40;1.00;;;;;;4999442;28;19925;-66
2021/08/23 07:05:59;;;;;;;;;;;17.30;1.00;;;;;;4999488;28;19916;-67
2021/08/23 07:08:25;;;;;;;;;;;17.40;1.00;;;;;;5000296;28;19926;-67
2021/08/23 07:10:51;;;;;;;;;;;17.40;1.00;;;;;;4999213;28;19921;-66
2021/08/23 07:13:16;;;;;;;;;;;17.30;1.00;;;;;;5000325;28;20298;-66
2021/08/23 07:15:42;;;;;;;;;;;17.30;1.00;;;;;;4999160;28;19909;-66
2021/08/23 07:18:07;;;;;;;;;;;17.40;1.00;;;;;;5000075;28;19916;-65
2021/08/23 07:20:33;;;;;;;;;;;17.50;1.00;;;;;;5001100;28;19910;-65
2021/08/23 07:22:58;;;;;;;;;;;17.70;99.90;;;;;;4998666;28;19948;-66
2021/08/23 07:25:24;;;;;;;;;;;17.80;1.00;;;;;;5000176;28;19910;-65
2021/08/23 07:27:49;;;;;;;;;;;17.80;99.90;;;;;;5000646;28;19954;-65
2021/08/23 07:30:15;;;;;;;;;;;17.90;99.90;;;;;;5001067;28;19914;-65
2021/08/23 07:32:42;;;;;;;;;;;17.90;99.90;;;;;;4999794;28;19924;-65
2021/08/23 07:35:08;;;;;;;;;;;18.00;1.00;;;;;;5001891;28;20008;-65
2021/08/23 07:37:37;;;;;;;;;;;18.00;1.00;;;;;;4997156;28;19968;-65
2021/08/23 07:40:06;;;;;;;;;;;18.00;1.00;;;;;;5000567;28;20017;-65
2021/08/23 07:42:31;;;;;;;;;;;18.20;1.00;;;;;;4998935;28;19910;-65
2021/08/23 07:44:57;;;;;;;;;;;18.30;1.00;;;;;;4999984;28;19916;-67
2021/08/23 07:47:22;;;;;;;;;;;18.30;99.90;;;;;;5001757;28;19921;-67
2021/08/23 07:49:47;;;;;;;;;;;18.40;99.90;;;;;;4999985;28;19924;-67
2021/08/23 07:52:13;;;;;;;;;;;18.40;62.70;;;;;;4998840;28;19984;-65
2021/08/23 07:54:38;;;;;;;;;;;18.50;97.90;;;;;;5000325;28;19917;-65
2021/08/23 07:57:04;;;;;;;;;;;18.60;1.00;;;;;;4996517;28;20012;-65
2021/08/23 07:59:30;;;;;;;;;;;18.70;42.80;;;;;;4998849;28;20012;-64
2021/08/23 08:01:55;;;;;;;;;;;18.90;1.00;;;;;;4999488;28;19914;-66
2021/08/23 08:04:21;;;;;;;;;;;19.20;1.00;;;;;;4998545;28;19921;-65
2021/08/23 08:06:46;;;;;;;;;;;19.50;99.90;;;;;;4999281;28;20330;-65
2021/08/23 08:09:12;;;;;;;;;;;19.70;51.00;;;;;;5001270;28;20274;-65
2021/08/23 08:11:38;;;;;;;;;;;19.90;1.00;;;;;;5009127;28;19933;-65
2021/08/23 08:14:03;;;;;;;;;;;20.00;1.00;;;;;;5009226;28;19940;-64
2021/08/23 08:16:29;;;;;;;;;;;20.20;1.00;;;;;;5008572;28;20075;-64
2021/08/23 08:18:54;;;;;;;;;;;20.60;1.00;;;;;;5009059;28;19917;-65
2021/08/23 08:21:21;;;;;;;;;;;20.60;99.90;;;;;;5009424;28;19917;-65
2021/08/23 08:23:47;;;;;;;;;;;20.60;99.90;;;;;;5008620;28;20322;-65
2021/08/23 08:26:13;;;;;;;;;;;20.60;99.90;;;;;;5009351;28;20314;-65
2021/08/23 08:28:38;;;;;;;;;;;21.00;97.30;;;;;;5007349;28;19913;-65
2021/08/23 08:31:04;;;;;;;;;;;22.10;1.00;;;;;;5008820;28;20008;-64
2021/08/23 08:33:29;;;;;;;;;;;24.20;1.00;;;;;;5008628;28;19980;-64
2021/08/23 08:35:58;;;;;;;;;;;26.20;99.90;;;;;;5008689;28;20327;-64
2021/08/23 08:38:24;;;;;;;;;;;25.80;99.90;;;;;;5010754;28;19910;-64
2021/08/23 08:40:51;;;;;;;;;;;24.90;99.90;;;;;;5010115;28;20407;-64
2021/08/23 08:43:16;;;;;;;;;;;23.90;99.90;;;;;;5008480;28;19917;-64
2021/08/23 08:45:43;;;;;;;;;;;23.10;99.90;;;;;;5009080;28;20390;-63
2021/08/23 08:48:08;;;;;;;;;;;22.20;99.90;;;;;;5009127;28;20321;-63
2021/08/23 08:50:34;;;;;;;;;;;21.60;99.90;;;;;;4999794;28;19961;-66
2021/08/23 08:53:05;;;;;;;;;;;21.10;99.90;;;;;;4995844;28;20323;-65
2021/08/23 08:55:35;;;;;;;;;;;20.70;99.90;;;;;;4997982;28;19913;-65
2021/08/23 08:58:01;;;;;;;;;;;20.50;1.00;;;;;;5001102;28;19945;-64
2021/08/23 09:00:27;;;;;;;;;;;20.30;1.00;;;;;;5001720;28;19997;-65
2021/08/23 09:02:53;;;;;;;;;;;20.20;1.00;;;;;;5000204;28;20072;-65
2021/08/23 09:05:19;;;;;;;;;;;20.00;1.00;;;;;;5003362;28;20000;-65
2021/08/23 09:07:48;;;;;;;;;;;19.90;1.00;;;;;;5001648;28;20009;-65
2021/08/23 09:10:17;;;;;;;;;;;19.70;1.00;;;;;;5001124;28;20314;-65
2021/08/23 09:12:43;;;;;;;;;;;19.60;1.00;;;;;;5001754;28;20024;-65
2021/08/23 09:15:08;;;;;;;;;;;19.90;1.00;;;;;;5001045;28;19993;-65
2021/08/23 09:17:34;;;;;;;;;;;21.10;1.00;;;;;;5000497;28;20000;-66
2021/08/23 09:20:00;;;;;;;;;;;22.40;1.00;;;;;;5002485;28;20391;-65
2021/08/23 09:22:26;;;;;;;;;;;23.40;99.90;;;;;;5000899;28;19910;-66
2021/08/23 09:24:52;;;;;;;;;;;25.00;99.90;;;;;;5001337;28;19909;-66
2021/08/23 09:27:17;;;;;;;;;;;27.00;99.90;;;;;;5002453;28;20489;-66
2021/08/23 09:29:54;;;;;;;;;;;27.20;99.90;;;;;;5001734;28;19918;-65
2021/08/23 09:32:20;;;;;;;;;;;26.40;99.90;;;;;;5002265;28;19963;-66
2021/08/23 09:34:46;;;;;;;;;;;25.50;99.90;;;;;;5004118;28;20290;-66
2021/08/23 09:37:18;;;;;;;;;;;24.50;99.90;;;;;;5000825;28;19965;-65
2021/08/23 09:39:44;;;;;;;;;;;23.60;99.90;;;;;;5003675;28;20433;-66
2021/08/23 09:42:10;;;;;;;;;;;23.00;99.90;;;;;;5001184;28;19910;-65
2021/08/23 09:44:36;;;;;;;;;;;22.30;99.90;;;;;;5001998;28;20770;-64
2021/08/23 09:47:02;;;;;;;;;;;22.00;99.90;;;;;;5001311;28;20271;-65
2021/08/23 09:49:38;;;;;;;;;;;21.60;99.90;;;;;;5002991;28;19913;-65
2021/08/23 09:52:05;;;;;;;;;;;21.30;99.90;;;;;;5000782;28;20416;-65
2021/08/23 09:54:30;;;;;;;;;;;20.80;99.90;;;;;;4999894;28;19929;-64
2021/08/23 09:56:56;;;;;;;;;;;20.20;99.90;;;;;;5002780;28;19922;-65
2021/08/23 09:59:22;;;;;;;;;;;19.90;1.00;;;;;;5000058;28;20275;-65
2021/08/23 10:01:49;;;;;;;;;;;19.70;1.00;;;;;;5001069;28;19910;-65
2021/08/23 10:04:15;;;;;;;;;;;19.60;1.00;;;;;;5001383;28;20018;-67
2021/08/23 10:06:42;;;;;;;;;;;19.40;1.00;;;;;;5003149;28;19910;-66
2021/08/23 10:09:08;;;;;;;;;;;19.30;47.90;;;;;;5000005;28;19928;-65
2021/08/23 10:11:38;;;;;;;;;;;19.40;24.30;;;;;;5001533;28;19940;-66
2021/08/23 10:14:04;;;;;;;;;;;19.60;56.10;;;;;;5000495;28;19937;-66
2021/08/23 10:16:30;;;;;;;;;;;19.70;1.00;;;;;;4997931;28;19950;-65
2021/08/23 10:18:56;;;;;;;;;;;19.70;1.00;;;;;;5001082;28;20068;-65
2021/08/23 10:21:22;;;;;;;;;;;19.90;1.00;;;;;;5000853;28;20223;-65
2021/08/23 10:23:49;;;;;;;;;;;20.00;1.80;;;;;;5010703;28;20328;-65
2021/08/23 10:26:15;;;;;;;;;;;20.10;1.00;;;;;;5010744;28;19917;-66
2021/08/23 10:28:41;;;;;;;;;;;20.30;1.00;;;;;;5006291;28;20008;-65
2021/08/23 10:31:07;;;;;;;;;;;20.40;1.00;;;;;;4999404;28;19910;-65
2021/08/23 10:33:37;;;;;;;;;;;20.70;1.00;;;;;;5000406;28;20363;-65
2021/08/23 10:36:04;;;;;;;;;;;20.90;1.00;;;;;;5010393;28;19914;-65
2021/08/23 10:38:30;;;;;;;;;;;21.30;1.00;;;;;;4997022;28;20371;-65
2021/08/23 10:41:11;;;;;;;;;;;21.60;1.00;;;;;;4991669;28;19914;-65
2021/08/23 10:43:46;;;;;;;;;;;22.00;1.00;;;;;;4994395;28;19966;-65
2021/08/23 10:46:27;;;;;;;;;;;22.50;1.00;;;;;;4998533;28;19910;-65
2021/08/23 10:48:53;;;;;;;;;;;22.70;1.00;;;;;;4998891;28;19990;-65
2021/08/23 10:51:45;;;;;;;;;;;22.80;99.90;;;;;;5002980;28;19944;-65
2021/08/23 10:54:24;;;;;;;;;;;22.90;99.90;;;;;;4986390;28;19917;-65
2021/08/23 10:57:01;;;;;;;;;;;22.70;99.90;;;;;;5000755;28;19928;-66
2021/08/23 10:59:45;;;;;;;;;;;22.40;1.00;;;;;;4999560;28;20044;-65
2021/08/23 11:02:15;;;;;;;;;;;22.20;1.00;;;;;;4990049;28;19986;-65
2021/08/23 11:04:42;;;;;;;;;;;22.00;1.00;;;;;;4990940;28;19910;-65
2021/08/23 11:07:08;;;;;;;;;;;22.00;1.00;;;;;;4996803;28;19914;-65
2021/08/23 11:09:41;;;;;;;;;;;22.10;1.00;;;;;;5000010;28;19924;-66
2021/08/23 11:12:07;;;;;;;;;;;22.30;1.00;;;;;;4999335;28;19913;-65
2021/08/23 11:14:40;;;;;;;;;;;22.60;1.00;;;;;;4998073;28;19917;-65
2021/08/23 11:17:06;;;;;;;;;;;23.00;99.90;;;;;;4998380;28;19916;-65
2021/08/23 11:19:36;;;;;;;;;;;23.50;99.90;;;;;;4999750;28;19909;-66
2021/08/23 11:22:02;;;;;;;;;;;24.20;99.90;;;;;;5000222;28;20435;-66
2021/08/23 11:24:28;;;;;;;;;;;25.60;99.90;;;;;;4998475;28;19924;-65
2021/08/23 11:26:54;;;;;;;;;;;27.30;99.90;;;;;;5003505;28;19944;-65
2021/08/23 11:29:20;;;;;;;;;;;29.10;99.90;;;;;;4998220;28;19921;-65
2021/08/23 11:31:58;;;;;;;;;;;30.10;99.90;;;;;;4999477;28;20290;-66
2021/08/23 11:34:25;;;;;;;;;;;30.20;99.90;;;;;;5002547;28;19909;-66
2021/08/23 11:36:51;;;;;;;;;;;29.30;99.90;;;;;;4999745;28;19909;-65
2021/08/23 11:39:16;;;;;;;;;;;28.50;99.90;;;;;;5000418;28;19921;-65
2021/08/23 11:41:42;;;;;;;;;;;27.80;99.90;;;;;;4998372;28;19972;-66
2021/08/23 11:44:07;;;;;;;;;;;27.10;99.90;;;;;;4999400;28;19928;-65
2021/08/23 11:46:33;;;;;;;;;;;26.40;99.90;;;;;;4997237;28;19914;-66
2021/08/23 11:48:58;;;;;;;;;;;25.80;99.90;;;;;;4998587;28;19972;-66
2021/08/23 11:51:31;;;;;;;;;;;25.70;99.90;;;;;;4999451;28;19932;-65
2021/08/23 11:53:57;;;;;;;;;;;26.20;99.90;;;;;;4999114;28;20004;-65
2021/08/23 11:56:22;;;;;;;;;;;27.20;99.90;;;;;;4998783;28;20320;-65
2021/08/23 11:58:48;;;;;;;;;;;28.20;99.90;;;;;;4997235;28;20016;-65
2021/08/23 12:01:16;;;;;;;;;;;28.70;99.90;;;;;;4998602;28;20263;-65
2021/08/23 12:03:42;;;;;;;;;;;28.70;99.90;;;;;;4998367;28;20034;-65
2021/08/23 12:06:09;;;;;;;;;;;28.40;99.90;;;;;;4998091;28;19914;-65
2021/08/23 12:08:37;;;;;;;;;;;27.80;99.90;;;;;;4997689;28;19980;-65
2021/08/23 12:11:09;;;;;;;;;;;26.90;99.90;;;;;;4998356;28;19914;-66
2021/08/23 12:13:39;;;;;;;;;;;26.30;99.90;;;;;;4998750;28;19917;-66
2021/08/23 12:16:06;;;;;;;;;;;25.50;99.90;;;;;;4999039;28;20269;-65
2021/08/23 12:18:33;;;;;;;;;;;24.90;99.90;;;;;;4999119;28;19941;-66
2021/08/23 12:21:22;;;;;;;;;;;24.50;99.90;;;;;;4998691;28;20545;-66
2021/08/23 12:23:55;;;;;;;;;;;24.20;99.90;;;;;;4997747;28;20390;-65
2021/08/23 12:26:41;;;;;;;;;;;24.30;99.90;;;;;;4998412;28;19910;-66
2021/08/23 12:29:14;;;;;;;;;;;24.50;99.90;;;;;;4999689;28;20260;-66
2021/08/23 12:31:46;;;;;;;;;;;24.50;99.90;;;;;;4997916;28;19916;-67
2021/08/23 12:34:16;;;;;;;;;;;24.40;99.90;;;;;;5004548;28;19917;-67
2021/08/23 12:36:42;;;;;;;;;;;24.20;99.90;;;;;;5001507;28;19910;-65
2021/08/23 12:39:08;;;;;;;;;;;23.90;99.90;;;;;;5001408;28;19914;-65
2021/08/23 12:41:33;;;;;;;;;;;23.60;99.90;;;;;;5002831;28;20367;-64
2021/08/23 12:43:59;;;;;;;;;;;23.30;99.90;;;;;;5001945;28;19945;-65
2021/08/23 12:46:25;;;;;;;;;;;22.90;99.90;;;;;;5002315;28;19972;-65
2021/08/23 12:48:50;;;;;;;;;;;22.50;99.90;;;;;;5001416;28;19922;-65
2021/08/23 12:51:17;;;;;;;;;;;22.30;99.90;;;;;;5002728;28;19924;-65
2021/08/23 12:53:44;;;;;;;;;;;22.10;99.90;;;;;;5000631;28;19929;-65
2021/08/23 12:56:13;;;;;;;;;;;22.10;99.90;;;;;;5002377;28;19960;-65
2021/08/23 12:58:38;;;;;;;;;;;22.10;99.90;;;;;;5000434;28;19910;-64
2021/08/23 13:01:03;;;;;;;;;;;22.20;99.90;;;;;;5001329;28;19909;-65
2021/08/23 13:03:29;;;;;;;;;;;22.40;99.90;;;;;;5001670;28;20545;-65
2021/08/23 13:05:55;;;;;;;;;;;22.50;99.90;;;;;;5001829;28;19913;-65
2021/08/23 13:08:20;;;;;;;;;;;22.60;99.90;;;;;;5001027;28;19925;-65
2021/08/23 13:10:46;;;;;;;;;;;22.70;99.90;;;;;;5001328;28;20305;-66
2021/08/23 13:13:13;;;;;;;;;;;22.90;99.90;;;;;;5001937;28;20224;-65
2021/08/23 13:15:38;;;;;;;;;;;23.10;99.90;;;;;;4998729;28;19914;-65
2021/08/23 13:18:04;;;;;;;;;;;23.40;99.90;;;;;;4997197;28;19931;-65
2021/08/23 13:20:30;;;;;;;;;;;23.50;99.90;;;;;;4993166;28;20362;-65
2021/08/23 13:22:55;;;;;;;;;;;23.70;99.90;;;;;;4992091;28;19909;-65
2021/08/23 13:25:21;;;;;;;;;;;23.80;99.90;;;;;;4992289;28;19913;-65
2021/08/23 13:27:46;;;;;;;;;;;23.60;99.90;;;;;;4992394;28;20000;-65
2021/08/23 13:30:13;;;;;;;;;;;23.30;99.90;;;;;;5010528;28;19959;-65
2021/08/23 13:32:39;;;;;;;;;;;23.30;99.90;;;;;;5011695;28;19951;-65
2021/08/23 13:35:04;;;;;;;;;;;23.10;99.90;;;;;;5012804;28;19945;-65
2021/08/23 13:37:30;;;;;;;;;;;23.00;99.90;;;;;;5012161;28;20008;-65
2021/08/23 13:39:55;;;;;;;;;;;22.90;99.90;;;;;;5011346;28;19909;-65
2021/08/23 13:42:21;;;;;;;;;;;23.00;99.90;;;;;;5010872;28;20314;-66
2021/08/23 13:44:46;;;;;;;;;;;23.00;99.90;;;;;;5010830;28;19910;-66
2021/08/23 13:47:12;;;;;;;;;;;23.00;99.90;;;;;;5012336;28;19948;-66
2021/08/23 13:49:37;;;;;;;;;;;23.20;99.90;;;;;;5008364;28;20270;-64
2021/08/23 13:52:03;;;;;;;;;;;23.30;99.90;;;;;;4992011;28;19945;-66
2021/08/23 13:56:56;;;;;;;;;;;23.70;99.90;;;;;;5014082;28;19933;-66
2021/08/23 13:59:22;;;;;;;;;;;23.80;99.90;;;;;;5010287;28;19914;-66
2021/08/23 14:01:47;;;;;;;;;;;23.80;99.90;;;;;;5011270;28;19909;-67
2021/08/23 14:04:13;;;;;;;;;;;23.90;99.90;;;;;;5012387;28;19914;-66
2021/08/23 14:06:38;;;;;;;;;;;23.90;99.90;;;;;;5012234;28;20370;-66
2021/08/23 14:09:04;;;;;;;;;;;23.90;99.90;;;;;;5011664;28;20059;-66
2021/08/23 14:11:29;;;;;;;;;;;23.90;99.90;;;;;;5011437;28;20380;-66
2021/08/23 14:13:57;;;;;;;;;;;23.90;99.90;;;;;;5011813;28;19917;-66
2021/08/23 14:16:24;;;;;;;;;;;24.00;99.90;;;;;;5011426;28;19916;-67
2021/08/23 14:18:50;;;;;;;;;;;24.30;99.90;;;;;;5013938;28;20017;-66
2021/08/23 14:21:15;;;;;;;;;;;24.50;99.90;;;;;;5011253;28;19979;-66
2021/08/23 14:23:41;;;;;;;;;;;24.60;99.90;;;;;;5011094;28;19925;-66
2021/08/23 14:26:06;;;;;;;;;;;24.60;99.90;;;;;;5011511;28;19936;-66